Аэропорт: Толмачёво. Новосибирск

ICAO: UNNT

METAR:
2018/07/16 19:30
UNNT 161930Z 35003MPS CAVOK 13/10 Q1009 R07/090070 R34/090070 NOSIG RMK QFE747/0996
METAR:
2018/07/16 18:21
TAF UNNT 161700Z 1618/1718 01003MPS CAVOK 
      BECMG 1702/1704 03008G16MPS 
      BECMG 1713/1715 01003G08MPS